PWSweather.com
Personal Weather Stations
Station Observations
LABLIDAR
PotenzaIT

PotenzaIT

Lat: 40.6467, Lon: 15.809

Elevation: 2395

Station Type: Oregon WMRS200

Latest ConditionsUpdated 7:07:50 AM GMT+01:01 Saturday, Aug 30, 2014
Currently Today's Max Today's Min Today's Average
Temperature 69.3°F20.7°C 73.0°F22.8°C 67.6°F19.8°C 70.0°F21.1°C
Dew Point 51.9°F11.1°C 53.9°F12.2°C 50.7°F10.4°C 52.0°F11.1°C
Winds 0.3 mph SE0.5 kmh SE 1.5 mph S2.4 kmh S - 0.1 mph 0.2 kmh
Wind Gusts 2.2 mph3.5 kmh 2.2 mph3.5 kmh - -
Humidity 54% 55% 51% 53%
Pressure 27.73 in939.0 mb 27.76 in940.1 mb 27.73 in939.0 mb -
Hour Temp Dew Point Humidity Winds Wind Gusts Pressure Precip Precip Rate Daily Precip Total
07:07 AM 69.3°F20.7°C 51.9°F11.1°C 54% 0.3 mph SE0.5 kmh SE 2.2 mph3.5 kmh 27.73 in939.0 mb 0.00 in0.0 mm 0.00 in/hr0.0 mm/hr 0.00 in0.0 mm
07:02 AM 68.9°F20.5°C 51.6°F10.9°C 54% 0.9 mph SE1.4 kmh SE 2.2 mph3.5 kmh 27.73 in939.0 mb 0.00 in0.0 mm 0.00 in/hr0.0 mm/hr 0.00 in0.0 mm
06:57 AM 68.6°F20.3°C 51.3°F10.7°C 54% 1.1 mph SE1.8 kmh SE 2.2 mph3.5 kmh 27.73 in939.0 mb 0.00 in0.0 mm 0.00 in/hr0.0 mm/hr 0.00 in0.0 mm
06:52 AM 68.4°F20.2°C 51.1°F10.6°C 54% 0.9 mph SE1.4 kmh SE 2.2 mph3.5 kmh 27.76 in940.1 mb 0.00 in0.0 mm 0.00 in/hr0.0 mm/hr 0.00 in0.0 mm
06:47 AM 68.2°F20.1°C 51.2°F10.7°C 54% 1.5 mph S2.4 kmh S 2.2 mph3.5 kmh 27.76 in940.1 mb 0.00 in0.0 mm 0.00 in/hr0.0 mm/hr 0.00 in0.0 mm
06:42 AM 68.0°F20.0°C 51.3°F10.7°C 55% 0.4 mph SSE0.6 kmh SSE 2.0 mph3.2 kmh 27.76 in940.1 mb 0.00 in0.0 mm 0.00 in/hr0.0 mm/hr 0.00 in0.0 mm
06:37 AM 67.8°F19.9°C 51.1°F10.6°C 55% 0.2 mph SE0.3 kmh SE 1.6 mph2.6 kmh 27.76 in940.1 mb 0.00 in0.0 mm 0.00 in/hr0.0 mm/hr 0.00 in0.0 mm
06:32 AM 67.8°F19.9°C 51.1°F10.6°C 55% 0.4 mph SSE0.6 kmh SSE 2.2 mph3.5 kmh 27.76 in940.1 mb 0.00 in0.0 mm 0.00 in/hr0.0 mm/hr 0.00 in0.0 mm
06:27 AM 67.7°F19.8°C 51.0°F10.6°C 55% 0.9 mph SSE1.4 kmh SSE 2.2 mph3.5 kmh 27.76 in940.1 mb 0.00 in0.0 mm 0.00 in/hr0.0 mm/hr 0.00 in0.0 mm
06:22 AM 67.6°F19.8°C 50.9°F10.5°C 55% 0.7 mph SSE1.1 kmh SSE 2.0 mph3.2 kmh 27.76 in940.1 mb 0.00 in0.0 mm 0.00 in/hr0.0 mm/hr 0.00 in0.0 mm
06:17 AM 67.7°F19.8°C 51.0°F10.6°C 55% Calm Calm -- 27.76 in940.1 mb 0.00 in0.0 mm 0.00 in/hr0.0 mm/hr 0.00 in0.0 mm
06:12 AM 67.8°F19.9°C 51.1°F10.6°C 55% Calm Calm -- 27.76 in940.1 mb 0.00 in0.0 mm 0.00 in/hr0.0 mm/hr 0.00 in0.0 mm
06:07 AM 67.8°F19.9°C 51.1°F10.6°C 55% Calm Calm -- 27.76 in940.1 mb 0.00 in0.0 mm 0.00 in/hr0.0 mm/hr 0.00 in0.0 mm
06:02 AM 67.8°F19.9°C 51.0°F10.6°C 55% Calm Calm -- 27.76 in940.1 mb 0.00 in0.0 mm 0.00 in/hr0.0 mm/hr 0.00 in0.0 mm
05:57 AM 67.8°F19.9°C 50.7°F10.4°C 54% Calm Calm -- 27.76 in940.1 mb 0.00 in0.0 mm 0.00 in/hr0.0 mm/hr 0.00 in0.0 mm
05:52 AM 67.9°F19.9°C 50.7°F10.4°C 54% Calm Calm -- 27.76 in940.1 mb 0.00 in0.0 mm 0.00 in/hr0.0 mm/hr 0.00 in0.0 mm
05:47 AM 68.0°F20.0°C 50.8°F10.4°C 54% Calm Calm -- 27.76 in940.1 mb 0.00 in0.0 mm 0.00 in/hr0.0 mm/hr 0.00 in0.0 mm
05:42 AM 68.0°F20.0°C 50.8°F10.4°C 54% Calm Calm -- 27.76 in940.1 mb 0.00 in0.0 mm 0.00 in/hr0.0 mm/hr 0.00 in0.0 mm
05:37 AM 68.0°F20.0°C 50.8°F10.4°C 54% Calm Calm -- 27.76 in940.1 mb 0.00 in0.0 mm 0.00 in/hr0.0 mm/hr 0.00 in0.0 mm
05:32 AM 68.2°F20.1°C 50.9°F10.5°C 54% Calm Calm -- 27.76 in940.1 mb 0.00 in0.0 mm 0.00 in/hr0.0 mm/hr 0.00 in0.0 mm
05:27 AM 68.2°F20.1°C 50.9°F10.5°C 54% Calm Calm -- 27.76 in940.1 mb 0.00 in0.0 mm 0.00 in/hr0.0 mm/hr 0.00 in0.0 mm
05:22 AM 68.2°F20.1°C 51.0°F10.6°C 54% Calm Calm -- 27.73 in939.0 mb 0.00 in0.0 mm 0.00 in/hr0.0 mm/hr 0.00 in0.0 mm
05:17 AM 68.4°F20.2°C 51.1°F10.6°C 54% Calm Calm -- 27.73 in939.0 mb 0.00 in0.0 mm 0.00 in/hr0.0 mm/hr 0.00 in0.0 mm
05:12 AM 68.4°F20.2°C 51.1°F10.6°C 54% Calm Calm -- 27.73 in939.0 mb 0.00 in0.0 mm 0.00 in/hr0.0 mm/hr 0.00 in0.0 mm
05:07 AM 68.4°F20.2°C 51.2°F10.7°C 54% Calm Calm -- 27.73 in939.0 mb 0.00 in0.0 mm 0.00 in/hr0.0 mm/hr 0.00 in0.0 mm
05:02 AM 68.5°F20.3°C 51.3°F10.7°C 54% Calm Calm -- 27.73 in939.0 mb 0.00 in0.0 mm 0.00 in/hr0.0 mm/hr 0.00 in0.0 mm
04:57 AM 68.5°F20.3°C 51.3°F10.7°C 54% Calm Calm -- 27.73 in939.0 mb 0.00 in0.0 mm 0.00 in/hr0.0 mm/hr 0.00 in0.0 mm
04:52 AM 68.7°F20.4°C 51.4°F10.8°C 54% Calm Calm -- 27.73 in939.0 mb 0.00 in0.0 mm 0.00 in/hr0.0 mm/hr 0.00 in0.0 mm
04:47 AM 68.7°F20.4°C 51.4°F10.8°C 54% Calm Calm -- 27.73 in939.0 mb 0.00 in0.0 mm 0.00 in/hr0.0 mm/hr 0.00 in0.0 mm
04:42 AM 68.8°F20.4°C 51.5°F10.8°C 54% Calm Calm -- 27.73 in939.0 mb 0.00 in0.0 mm 0.00 in/hr0.0 mm/hr 0.00 in0.0 mm
04:37 AM 68.9°F20.5°C 51.4°F10.8°C 54% Calm Calm -- 27.73 in939.0 mb 0.00 in0.0 mm 0.00 in/hr0.0 mm/hr 0.00 in0.0 mm
04:32 AM 69.0°F20.6°C 51.3°F10.7°C 53% Calm Calm -- 27.73 in939.0 mb 0.00 in0.0 mm 0.00 in/hr0.0 mm/hr 0.00 in0.0 mm
04:27 AM 69.1°F20.6°C 51.3°F10.7°C 53% Calm Calm -- 27.73 in939.0 mb 0.00 in0.0 mm 0.00 in/hr0.0 mm/hr 0.00 in0.0 mm
04:22 AM 69.1°F20.6°C 51.3°F10.7°C 53% Calm Calm -- 27.73 in939.0 mb 0.00 in0.0 mm 0.00 in/hr0.0 mm/hr 0.00 in0.0 mm
04:17 AM 69.2°F20.7°C 51.4°F10.8°C 53% Calm Calm -- 27.73 in939.0 mb 0.00 in0.0 mm 0.00 in/hr0.0 mm/hr 0.00 in0.0 mm
04:12 AM 69.3°F20.7°C 51.4°F10.8°C 53% Calm Calm -- 27.73 in939.0 mb 0.00 in0.0 mm 0.00 in/hr0.0 mm/hr 0.00 in0.0 mm
04:07 AM 69.3°F20.7°C 51.4°F10.8°C 53% Calm Calm -- 27.73 in939.0 mb 0.00 in0.0 mm 0.00 in/hr0.0 mm/hr 0.00 in0.0 mm
04:02 AM 69.4°F20.8°C 51.6°F10.9°C 53% Calm Calm -- 27.73 in939.0 mb 0.00 in0.0 mm 0.00 in/hr0.0 mm/hr 0.00 in0.0 mm
03:57 AM 69.4°F20.8°C 51.6°F10.9°C 53% Calm Calm -- 27.73 in939.0 mb 0.00 in0.0 mm 0.00 in/hr0.0 mm/hr 0.00 in0.0 mm
03:52 AM 69.5°F20.8°C 51.7°F10.9°C 53% Calm Calm -- 27.73 in939.0 mb 0.00 in0.0 mm 0.00 in/hr0.0 mm/hr 0.00 in0.0 mm
03:47 AM 69.6°F20.9°C 51.8°F11.0°C 53% Calm Calm -- 27.73 in939.0 mb 0.00 in0.0 mm 0.00 in/hr0.0 mm/hr 0.00 in0.0 mm
03:42 AM 69.7°F20.9°C 51.8°F11.0°C 53% Calm Calm -- 27.73 in939.0 mb 0.00 in0.0 mm 0.00 in/hr0.0 mm/hr 0.00 in0.0 mm
03:37 AM 69.8°F21.0°C 51.9°F11.1°C 53% Calm Calm -- 27.73 in939.0 mb 0.00 in0.0 mm 0.00 in/hr0.0 mm/hr 0.00 in0.0 mm
03:32 AM 69.8°F21.0°C 51.9°F11.1°C 53% Calm Calm -- 27.73 in939.0 mb 0.00 in0.0 mm 0.00 in/hr0.0 mm/hr 0.00 in0.0 mm
03:27 AM 69.9°F21.1°C 52.0°F11.1°C 53% Calm Calm -- 27.73 in939.0 mb 0.00 in0.0 mm 0.00 in/hr0.0 mm/hr 0.00 in0.0 mm
03:22 AM 70.0°F21.1°C 52.1°F11.2°C 53% Calm Calm -- 27.73 in939.0 mb 0.00 in0.0 mm 0.00 in/hr0.0 mm/hr 0.00 in0.0 mm
03:17 AM 70.0°F21.1°C 52.1°F11.2°C 53% Calm Calm -- 27.73 in939.0 mb 0.00 in0.0 mm 0.00 in/hr0.0 mm/hr 0.00 in0.0 mm
03:12 AM 70.2°F21.2°C 52.3°F11.3°C 53% Calm Calm -- 27.73 in939.0 mb 0.00 in0.0 mm 0.00 in/hr0.0 mm/hr 0.00 in0.0 mm
03:07 AM 70.2°F21.2°C 52.3°F11.3°C 53% Calm Calm -- 27.73 in939.0 mb 0.00 in0.0 mm 0.00 in/hr0.0 mm/hr 0.00 in0.0 mm
03:02 AM 70.3°F21.3°C 52.1°F11.2°C 53% Calm Calm -- 27.73 in939.0 mb 0.00 in0.0 mm 0.00 in/hr0.0 mm/hr 0.00 in0.0 mm
02:57 AM 70.3°F21.3°C 51.9°F11.1°C 52% Calm Calm -- 27.73 in939.0 mb 0.00 in0.0 mm 0.00 in/hr0.0 mm/hr 0.00 in0.0 mm
02:52 AM 70.4°F21.3°C 51.9°F11.1°C 52% Calm Calm -- 27.73 in939.0 mb 0.00 in0.0 mm 0.00 in/hr0.0 mm/hr 0.00 in0.0 mm
02:47 AM 70.5°F21.4°C 52.1°F11.2°C 52% Calm Calm -- 27.73 in939.0 mb 0.00 in0.0 mm 0.00 in/hr0.0 mm/hr 0.00 in0.0 mm
02:42 AM 70.5°F21.4°C 52.1°F11.2°C 52% Calm Calm -- 27.73 in939.0 mb 0.00 in0.0 mm 0.00 in/hr0.0 mm/hr 0.00 in0.0 mm
02:37 AM 70.7°F21.5°C 52.2°F11.2°C 52% Calm Calm -- 27.73 in939.0 mb 0.00 in0.0 mm 0.00 in/hr0.0 mm/hr 0.00 in0.0 mm
02:32 AM 70.7°F21.5°C 52.2°F11.2°C 52% Calm Calm -- 27.73 in939.0 mb 0.00 in0.0 mm 0.00 in/hr0.0 mm/hr 0.00 in0.0 mm
02:27 AM 70.7°F21.5°C 52.3°F11.3°C 52% Calm Calm -- 27.73 in939.0 mb 0.00 in0.0 mm 0.00 in/hr0.0 mm/hr 0.00 in0.0 mm
02:22 AM 70.9°F21.6°C 52.4°F11.3°C 52% Calm Calm -- 27.73 in939.0 mb 0.00 in0.0 mm 0.00 in/hr0.0 mm/hr 0.00 in0.0 mm
02:17 AM 70.9°F21.6°C 52.4°F11.3°C 52% Calm Calm -- 27.73 in939.0 mb 0.00 in0.0 mm 0.00 in/hr0.0 mm/hr 0.00 in0.0 mm
02:12 AM 71.0°F21.7°C 52.5°F11.4°C 52% Calm Calm -- 27.73 in939.0 mb 0.00 in0.0 mm 0.00 in/hr0.0 mm/hr 0.00 in0.0 mm
02:07 AM 71.1°F21.7°C 52.6°F11.4°C 52% Calm Calm -- 27.73 in939.0 mb 0.00 in0.0 mm 0.00 in/hr0.0 mm/hr 0.00 in0.0 mm
02:02 AM 71.1°F21.7°C 52.6°F11.4°C 52% Calm Calm -- 27.73 in939.0 mb 0.00 in0.0 mm 0.00 in/hr0.0 mm/hr 0.00 in0.0 mm
01:57 AM 71.2°F21.8°C 52.7°F11.5°C 52% Calm Calm -- 27.73 in939.0 mb 0.00 in0.0 mm 0.00 in/hr0.0 mm/hr 0.00 in0.0 mm
01:52 AM 71.2°F21.8°C 52.7°F11.5°C 52% Calm Calm -- 27.73 in939.0 mb 0.00 in0.0 mm 0.00 in/hr0.0 mm/hr 0.00 in0.0 mm
01:47 AM 71.4°F21.9°C 52.8°F11.6°C 52% Calm Calm -- 27.73 in939.0 mb 0.00 in0.0 mm 0.00 in/hr0.0 mm/hr 0.00 in0.0 mm
01:42 AM 71.4°F21.9°C 52.9°F11.6°C 52% Calm Calm -- 27.73 in939.0 mb 0.00 in0.0 mm 0.00 in/hr0.0 mm/hr 0.00 in0.0 mm
01:37 AM 71.5°F21.9°C 52.9°F11.6°C 52% Calm Calm -- 27.73 in939.0 mb 0.00 in0.0 mm 0.00 in/hr0.0 mm/hr 0.00 in0.0 mm
01:32 AM 71.6°F22.0°C 53.1°F11.7°C 52% Calm Calm -- 27.73 in939.0 mb 0.00 in0.0 mm 0.00 in/hr0.0 mm/hr 0.00 in0.0 mm
01:27 AM 71.6°F22.0°C 53.0°F11.7°C 52% Calm Calm 1.6 mph2.6 kmh 27.73 in939.0 mb 0.00 in0.0 mm 0.00 in/hr0.0 mm/hr 0.00 in0.0 mm
01:22 AM 71.8°F22.1°C 52.7°F11.5°C 51% Calm Calm 1.6 mph2.6 kmh 27.73 in939.0 mb 0.00 in0.0 mm 0.00 in/hr0.0 mm/hr 0.00 in0.0 mm
01:17 AM 71.8°F22.1°C 52.7°F11.5°C 51% Calm Calm -- 27.73 in939.0 mb 0.00 in0.0 mm 0.00 in/hr0.0 mm/hr 0.00 in0.0 mm
01:12 AM 71.9°F22.2°C 52.8°F11.6°C 51% Calm Calm -- 27.73 in939.0 mb 0.00 in0.0 mm 0.00 in/hr0.0 mm/hr 0.00 in0.0 mm
01:07 AM 72.0°F22.2°C 52.9°F11.6°C 51% Calm Calm -- 27.73 in939.0 mb 0.00 in0.0 mm 0.00 in/hr0.0 mm/hr 0.00 in0.0 mm
01:02 AM 72.0°F22.2°C 52.9°F11.6°C 51% Calm Calm -- 27.73 in939.0 mb 0.00 in0.0 mm 0.00 in/hr0.0 mm/hr 0.00 in0.0 mm
12:57 AM 72.1°F22.3°C 53.0°F11.7°C 51% Calm Calm -- 27.73 in939.0 mb 0.00 in0.0 mm 0.00 in/hr0.0 mm/hr 0.00 in0.0 mm
12:52 AM 72.2°F22.3°C 53.1°F11.7°C 51% Calm Calm -- 27.73 in939.0 mb 0.00 in0.0 mm 0.00 in/hr0.0 mm/hr 0.00 in0.0 mm
12:47 AM 72.3°F22.4°C 53.2°F11.8°C 51% Calm Calm -- 27.73 in939.0 mb 0.00 in0.0 mm 0.00 in/hr0.0 mm/hr 0.00 in0.0 mm
12:42 AM 72.3°F22.4°C 53.2°F11.8°C 51% Calm Calm 1.3 mph2.1 kmh 27.73 in939.0 mb 0.00 in0.0 mm 0.00 in/hr0.0 mm/hr 0.00 in0.0 mm
12:37 AM 72.4°F22.4°C 53.3°F11.8°C 51% Calm Calm 1.3 mph2.1 kmh 27.73 in939.0 mb 0.00 in0.0 mm 0.00 in/hr0.0 mm/hr 0.00 in0.0 mm
12:32 AM 72.5°F22.5°C 53.4°F11.9°C 51% Calm Calm -- 27.73 in939.0 mb 0.00 in0.0 mm 0.00 in/hr0.0 mm/hr 0.00 in0.0 mm
12:27 AM 72.5°F22.5°C 53.4°F11.9°C 51% Calm Calm -- 27.73 in939.0 mb 0.00 in0.0 mm 0.00 in/hr0.0 mm/hr 0.00 in0.0 mm
12:22 AM 72.7°F22.6°C 53.5°F11.9°C 51% Calm Calm 0.9 mph1.4 kmh 27.73 in939.0 mb 0.00 in0.0 mm 0.00 in/hr0.0 mm/hr 0.00 in0.0 mm
12:17 AM 72.7°F22.6°C 53.6°F12.0°C 51% Calm Calm 1.1 mph1.8 kmh 27.73 in939.0 mb 0.00 in0.0 mm 0.00 in/hr0.0 mm/hr 0.00 in0.0 mm
12:12 AM 72.9°F22.7°C 53.7°F12.1°C 51% Calm Calm 1.1 mph1.8 kmh 27.73 in939.0 mb 0.00 in0.0 mm 0.00 in/hr0.0 mm/hr 0.00 in0.0 mm
12:07 AM 72.9°F22.7°C 53.7°F12.1°C 51% Calm Calm -- 27.73 in939.0 mb 0.00 in0.0 mm 0.00 in/hr0.0 mm/hr 0.00 in0.0 mm
12:02 AM 73.0°F22.8°C 53.9°F12.2°C 51% Calm Calm -- 27.73 in939.0 mb 0.00 in0.0 mm 0.00 in/hr0.0 mm/hr 0.00 in0.0 mm